Time;durP1;ratioP1;P1;durP2;ratioP2;P2;SDS_P1;SDS_P2;PMS_P1;PMS_P2;Temp;Humidity;BMP_temperature;BMP_pressure;BME280_temperature;BME280_humidity;BME280_pressure;Samples;Min_cycle;Max_cycle;Signal;HPM_P1;HPM_P2
2023/09/28 00:02:26;;;;;;;;;;;;;;;14.25;86.62;101188.90;107501;275;104758;-59
2023/09/28 00:04:59;;;;;;;;;;;;;;;14.21;86.69;101185.02;107677;275;114855;-59
2023/09/28 00:07:36;;;;;;;;;;;;;;;14.15;86.86;101181.90;107698;275;95624;-58
2023/09/28 00:10:11;;;;;;;;;;;;;;;14.11;86.69;101182.04;107685;275;97006;-55
2023/09/28 00:12:46;;;;;;;;;;;;;;;14.07;86.75;101180.68;107680;275;118613;-55
2023/09/28 00:15:19;;;;;;;;;;;;;;;14.02;86.73;101181.50;107709;275;105928;-59
2023/09/28 00:17:54;;;;;;;;;;;;;;;13.95;86.82;101182.85;107707;275;113529;-57
2023/09/28 00:20:29;;;;;;;;;;;;;;;13.91;86.79;101183.73;107739;275;96867;-59
2023/09/28 00:23:04;;;;;;;;;;;;;;;13.86;86.77;101179.03;107736;275;96929;-57
2023/09/28 00:25:40;;;;;;;;;;;;;;;13.82;86.91;101177.34;107725;275;120392;-58
2023/09/28 00:28:19;;;;;;;;;;;;;;;13.78;86.84;101177.14;107502;275;105521;-58
2023/09/28 00:31:01;;;;;;;;;;;;;;;13.72;86.86;101175.14;107768;275;113433;-54
2023/09/28 00:33:36;;;;;;;;;;;;;;;13.66;87.01;101176.20;107488;275;98026;-54
2023/09/28 00:36:14;;;;;;;;;;;;;;;13.64;87.09;101174.75;107663;275;98541;-54
2023/09/28 00:38:52;;;;;;;;;;;;;;;13.60;87.13;101177.38;107654;275;120453;-53
2023/09/28 00:41:31;;;;;;;;;;;;;;;13.54;87.21;101180.73;107643;275;105534;-55
2023/09/28 00:44:12;;;;;;;;;;;;;;;13.49;87.27;101179.47;107660;275;114902;-55
2023/09/28 00:46:49;;;;;;;;;;;;;;;13.46;87.46;101177.70;107479;275;94877;-59
2023/09/28 00:49:23;;;;;;;;;;;;;;;13.45;87.65;101177.54;107500;275;96219;-58
2023/09/28 00:51:59;;;;;;;;;;;;;;;13.53;87.86;101176.63;107679;275;119628;-56
2023/09/28 00:54:38;;;;;;;;;;;;;;;13.58;87.61;101172.60;107658;275;104673;-57
2023/09/28 00:57:17;;;;;;;;;;;;;;;13.64;87.86;101171.70;107524;275;116971;-59
2023/09/28 00:59:54;;;;;;;;;;;;;;;13.67;87.95;101173.38;107681;275;96806;-59
2023/09/28 01:02:26;;;;;;;;;;;;;;;13.68;87.94;101175.65;107746;275;96562;-55
2023/09/28 01:04:57;;;;;;;;;;;;;;;13.69;87.86;101177.02;107742;275;122130;-56
2023/09/28 01:07:31;;;;;;;;;;;;;;;13.72;88.06;101175.90;107721;276;103788;-58
2023/09/28 01:10:09;;;;;;;;;;;;;;;13.74;87.95;101173.30;107494;276;113261;-57
2023/09/28 01:12:44;;;;;;;;;;;;;;;13.72;88.10;101172.39;107696;275;96260;-58
2023/09/28 01:15:26;;;;;;;;;;;;;;;13.68;88.17;101166.45;107736;275;97536;-60
2023/09/28 01:17:57;;;;;;;;;;;;;;;13.63;88.19;101168.27;107711;275;119262;-58
2023/09/28 01:20:35;;;;;;;;;;;;;;;13.59;88.07;101165.65;107712;275;104887;-54
2023/09/28 01:23:08;;;;;;;;;;;;;;;13.57;87.98;101166.42;107652;275;115251;-54
2023/09/28 01:25:46;;;;;;;;;;;;;;;13.53;88.16;101164.77;107673;275;96248;-58
2023/09/28 01:28:17;;;;;;;;;;;;;;;13.47;88.24;101163.90;107679;275;95906;-59
2023/09/28 01:30:48;;;;;;;;;;;;;;;13.41;88.22;101159.48;107671;275;119585;-54
2023/09/28 01:33:20;;;;;;;;;;;;;;;13.36;88.39;101160.41;107665;275;104793;-54
2023/09/28 01:35:52;;;;;;;;;;;;;;;13.32;88.27;101164.70;107662;275;113203;-59
2023/09/28 01:38:24;;;;;;;;;;;;;;;13.31;88.50;101160.18;107514;275;98818;-59
2023/09/28 01:40:59;;;;;;;;;;;;;;;13.43;88.96;101159.42;107712;275;97073;-56
2023/09/28 01:43:37;;;;;;;;;;;;;;;13.57;89.16;101157.14;107667;275;119783;-54
2023/09/28 01:46:16;;;;;;;;;;;;;;;13.67;89.10;101158.58;107707;275;104561;-60
2023/09/28 01:48:53;;;;;;;;;;;;;;;13.73;89.17;101155.82;107703;275;114720;-59
2023/09/28 01:51:29;;;;;;;;;;;;;;;13.82;89.35;101152.66;107678;275;95838;-55
2023/09/28 01:54:02;;;;;;;;;;;;;;;13.89;89.21;101148.94;107708;275;97655;-54
2023/09/28 01:56:37;;;;;;;;;;;;;;;13.92;89.08;101143.75;107682;275;119507;-57
2023/09/28 01:59:15;;;;;;;;;;;;;;;13.88;88.89;101139.57;107636;275;103808;-57
2023/09/28 02:01:57;;;;;;;;;;;;;;;13.81;88.80;101138.73;107659;275;114756;-54
2023/09/28 02:04:30;;;;;;;;;;;;;;;13.73;88.59;101141.40;107645;275;95015;-54
2023/09/28 02:07:06;;;;;;;;;;;;;;;13.61;88.66;101143.97;107459;275;97524;-54
2023/09/28 02:09:43;;;;;;;;;;;;;;;13.50;88.50;101143.98;107644;275;120367;-53
2023/09/28 02:12:17;;;;;;;;;;;;;;;13.41;88.16;101144.91;107642;275;105624;-56
2023/09/28 02:14:52;;;;;;;;;;;;;;;13.31;88.17;101143.35;107629;275;114704;-55
2023/09/28 02:17:25;;;;;;;;;;;;;;;13.22;88.08;101142.72;107665;275;96667;-56
2023/09/28 02:19:56;;;;;;;;;;;;;;;13.15;87.91;101143.89;107702;275;96303;-55
2023/09/28 02:22:33;;;;;;;;;;;;;;;13.06;87.97;101141.16;107657;275;119497;-55
2023/09/28 02:25:08;;;;;;;;;;;;;;;12.97;87.90;101145.39;107649;275;104395;-57
2023/09/28 02:27:41;;;;;;;;;;;;;;;12.90;87.81;101141.04;107678;275;114054;-59
2023/09/28 02:30:14;;;;;;;;;;;;;;;12.82;87.95;101138.37;107688;275;95680;-59
2023/09/28 02:32:51;;;;;;;;;;;;;;;12.76;88.00;101136.70;107705;275;97337;-59
2023/09/28 02:35:22;;;;;;;;;;;;;;;12.71;87.83;101130.56;107666;275;120119;-57
2023/09/28 02:37:55;;;;;;;;;;;;;;;12.65;87.80;101127.48;107695;275;105156;-56
2023/09/28 02:40:29;;;;;;;;;;;;;;;12.60;87.77;101130.02;107695;275;114529;-57
2023/09/28 02:43:01;;;;;;;;;;;;;;;12.55;87.74;101128.52;107656;275;96469;-57
2023/09/28 02:45:42;;;;;;;;;;;;;;;12.47;87.73;101129.61;107462;275;97873;-58
2023/09/28 02:48:16;;;;;;;;;;;;;;;12.42;87.78;101129.85;107704;275;119231;-59
2023/09/28 02:50:52;;;;;;;;;;;;;;;12.36;87.71;101133.80;107704;275;105427;-56
2023/09/28 02:53:27;;;;;;;;;;;;;;;12.31;87.82;101133.51;107654;275;113039;-56
2023/09/28 02:56:00;;;;;;;;;;;;;;;12.26;87.88;101136.46;107596;272;97463;-58
2023/09/28 02:58:34;;;;;;;;;;;;;;;12.17;87.92;101136.51;107698;269;97474;-59
2023/09/28 03:01:16;;;;;;;;;;;;;;;12.09;87.90;101135.29;107707;275;119530;-59
2023/09/28 03:03:50;;;;;;;;;;;;;;;12.04;88.06;101134.91;107651;275;104017;-59
2023/09/28 03:06:27;;;;;;;;;;;;;;;11.99;88.02;101130.15;107464;275;115196;-54
2023/09/28 03:09:04;;;;;;;;;;;;;;;11.94;88.06;101126.84;107660;275;97728;-54
2023/09/28 03:11:40;;;;;;;;;;;;;;;11.88;88.28;101122.85;107692;275;97136;-56
2023/09/28 03:14:12;;;;;;;;;;;;;;;11.85;88.37;101121.72;107607;275;121482;-56
2023/09/28 03:16:49;;;;;;;;;;;;;;;11.85;88.44;101122.46;107671;275;105682;-56
2023/09/28 03:19:25;;;;;;;;;;;;;;;11.83;88.42;101125.20;107686;275;113501;-56
2023/09/28 03:22:04;;;;;;;;;;;;;;;11.83;88.52;101127.18;107685;275;97834;-59
2023/09/28 03:24:44;;;;;;;;;;;;;;;11.82;88.67;101124.20;107705;275;97498;-58
2023/09/28 03:27:23;;;;;;;;;;;;;;;11.82;88.74;101126.25;107692;275;120696;-56
2023/09/28 03:30:05;;;;;;;;;;;;;;;11.80;89.01;101126.59;107685;275;104634;-56
2023/09/28 03:32:40;;;;;;;;;;;;;;;11.78;89.07;101129.88;107633;275;114765;-57
2023/09/28 03:35:11;;;;;;;;;;;;;;;11.75;89.12;101127.89;107715;275;95111;-59
2023/09/28 03:37:47;;;;;;;;;;;;;;;11.75;89.22;101129.16;107718;275;97974;-59
2023/09/28 03:40:24;;;;;;;;;;;;;;;11.74;89.29;101128.76;107683;275;119981;-57
2023/09/28 03:42:59;;;;;;;;;;;;;;;11.72;89.42;101132.64;107659;275;105184;-54
2023/09/28 03:45:32;;;;;;;;;;;;;;;11.70;89.47;101132.27;107660;275;114894;-55
2023/09/28 03:48:05;;;;;;;;;;;;;;;11.67;89.51;101134.05;107683;275;96565;-55
2023/09/28 03:50:48;;;;;;;;;;;;;;;11.63;89.62;101131.71;107699;275;95244;-55
2023/09/28 03:53:24;;;;;;;;;;;;;;;11.58;89.49;101125.92;107652;275;120666;-55
2023/09/28 03:56:01;;;;;;;;;;;;;;;11.53;89.58;101124.52;107658;275;105624;-54
2023/09/28 03:58:40;;;;;;;;;;;;;;;11.48;89.69;101124.45;107038;275;601792;-53
2023/09/28 04:01:18;;;;;;;;;;;;;;;11.46;89.65;101121.27;107704;275;96690;-58
2023/09/28 04:04:11;;;;;;;;;;;;;;;11.43;89.73;101119.31;107671;275;98041;-58
2023/09/28 04:07:04;;;;;;;;;;;;;;;11.38;89.86;101116.92;107676;275;120913;-59
2023/09/28 04:09:36;;;;;;;;;;;;;;;11.36;89.94;101113.80;107759;275;104127;-60
2023/09/28 04:12:08;;;;;;;;;;;;;;;11.34;90.00;101114.60;107685;275;115009;-54
2023/09/28 04:14:46;;;;;;;;;;;;;;;11.33;90.14;101112.84;107662;275;96804;-54
2023/09/28 04:17:21;;;;;;;;;;;;;;;11.35;90.21;101115.02;107509;275;97868;-58
2023/09/28 04:19:57;;;;;;;;;;;;;;;11.36;90.43;101114.64;107708;275;120315;-57
2023/09/28 04:22:35;;;;;;;;;;;;;;;11.37;90.28;101117.95;107700;275;104261;-55
2023/09/28 04:25:08;;;;;;;;;;;;;;;11.39;90.64;101115.16;107728;275;113201;-55
2023/09/28 04:27:38;;;;;;;;;;;;;;;11.41;90.61;101116.58;107707;275;95543;-56
2023/09/28 04:30:10;;;;;;;;;;;;;;;11.48;91.10;101119.95;107744;275;96960;-56
2023/09/28 04:32:46;;;;;;;;;;;;;;;11.60;91.29;101120.97;107708;275;121658;-58
2023/09/28 04:35:16;;;;;;;;;;;;;;;11.66;91.11;101121.04;107493;275;103783;-53
2023/09/28 04:37:50;;;;;;;;;;;;;;;11.72;91.27;101119.27;107670;275;114481;-53
2023/09/28 04:40:25;;;;;;;;;;;;;;;11.82;91.55;101121.47;107668;275;97239;-54
2023/09/28 04:43:05;;;;;;;;;;;;;;;11.94;91.58;101116.72;107661;275;96365;-53
2023/09/28 04:45:36;;;;;;;;;;;;;;;12.02;91.58;101114.08;107665;275;120626;-56
2023/09/28 04:48:07;;;;;;;;;;;;;;;12.15;92.00;101114.85;107670;275;105383;-56
2023/09/28 04:50:40;;;;;;;;;;;;;;;12.29;92.17;101118.77;107667;275;114043;-56
2023/09/28 04:53:16;;;;;;;;;;;;;;;12.45;92.50;101120.79;107689;275;95221;-56
2023/09/28 04:55:51;;;;;;;;;;;;;;;12.63;92.84;101123.90;107702;275;98092;-55
2023/09/28 04:58:21;;;;;;;;;;;;;;;12.79;92.83;101126.27;107731;275;117868;-56
2023/09/28 05:00:57;;;;;;;;;;;;;;;12.88;92.83;101127.86;107496;275;106855;-53
2023/09/28 05:03:30;;;;;;;;;;;;;;;12.98;92.72;101125.20;107710;275;113870;-54
2023/09/28 05:06:09;;;;;;;;;;;;;;;13.11;92.73;101128.13;107697;275;97835;-59
2023/09/28 05:08:47;;;;;;;;;;;;;;;13.22;92.82;101128.96;107741;275;96420;-58
2023/09/28 05:11:17;;;;;;;;;;;;;;;13.35;92.59;101126.40;107709;275;119387;-56
2023/09/28 05:13:48;;;;;;;;;;;;;;;13.45;92.62;101125.45;107697;275;104297;-59
2023/09/28 05:16:21;;;;;;;;;;;;;;;13.56;92.46;101128.19;107717;275;112047;-59
2023/09/28 05:18:59;;;;;;;;;;;;;;;13.65;92.25;101126.43;107669;275;96885;-59
2023/09/28 05:21:34;;;;;;;;;;;;;;;13.76;92.22;101124.93;107720;275;96853;-56
2023/09/28 05:24:04;;;;;;;;;;;;;;;13.85;92.10;101123.19;107639;275;120505;-56
2023/09/28 05:26:42;;;;;;;;;;;;;;;13.93;92.04;101127.13;107692;275;104527;-59
2023/09/28 05:29:18;;;;;;;;;;;;;;;13.99;91.90;101125.64;107656;275;114449;-55
2023/09/28 05:31:50;;;;;;;;;;;;;;;14.08;91.62;101128.23;107678;275;95647;-56
2023/09/28 05:34:28;;;;;;;;;;;;;;;14.28;91.74;101124.50;107624;275;97841;-58
2023/09/28 05:37:01;;;;;;;;;;;;;;;15.24;91.74;101121.08;107738;275;120832;-54
2023/09/28 05:39:37;;;;;;;;;;;;;;;16.74;90.14;101121.05;107701;275;105651;-56
2023/09/28 05:42:18;;;;;;;;;;;;;;;18.31;88.26;101115.39;107525;275;114771;-57
2023/09/28 05:45:02;;;;;;;;;;;;;;;19.10;86.68;101111.86;107692;275;95527;-53
2023/09/28 05:47:38;;;;;;;;;;;;;;;18.71;85.26;101110.03;107720;275;98436;-56
2023/09/28 05:50:18;;;;;;;;;;;;;;;18.25;84.73;101120.63;107696;275;120157;-56
2023/09/28 05:52:58;;;;;;;;;;;;;;;17.87;84.38;101121.77;107749;275;104685;-55
2023/09/28 05:55:32;;;;;;;;;;;;;;;17.72;84.51;101122.10;107710;275;112665;-57
2023/09/28 05:58:05;;;;;;;;;;;;;;;17.72;84.22;101126.36;107533;275;94801;-55
2023/09/28 06:00:39;;;;;;;;;;;;;;;17.59;84.12;101126.70;107719;275;96969;-57
2023/09/28 06:03:10;;;;;;;;;;;;;;;17.44;83.70;101128.89;107679;275;121181;-55
2023/09/28 06:05:43;;;;;;;;;;;;;;;17.43;83.80;101129.52;107689;275;105961;-55
2023/09/28 06:08:22;;;;;;;;;;;;;;;17.47;83.45;101129.84;107727;275;114304;-54
2023/09/28 06:10:56;;;;;;;;;;;;;;;17.43;83.07;101130.23;107471;275;96747;-59
2023/09/28 06:13:33;;;;;;;;;;;;;;;17.32;82.87;101124.77;107659;275;98055;-57
2023/09/28 06:16:08;;;;;;;;;;;;;;;17.26;82.79;101124.70;107673;275;120859;-57
2023/09/28 06:18:42;;;;;;;;;;;;;;;17.25;82.82;101120.67;107685;275;104375;-56
2023/09/28 06:21:18;;;;;;;;;;;;;;;17.25;82.52;101119.66;107652;275;113427;-57
2023/09/28 06:23:52;;;;;;;;;;;;;;;17.38;82.60;101120.16;107671;275;96494;-56
2023/09/28 06:26:23;;;;;;;;;;;;;;;17.53;82.21;101120.66;107685;275;97192;-57
2023/09/28 06:28:56;;;;;;;;;;;;;;;17.61;82.01;101118.91;107467;275;120873;-56
2023/09/28 06:31:27;;;;;;;;;;;;;;;17.70;81.51;101119.55;107683;275;103928;-56
2023/09/28 06:34:03;;;;;;;;;;;;;;;17.74;81.41;101118.35;107689;275;113597;-57
2023/09/28 06:36:38;;;;;;;;;;;;;;;17.83;81.06;101115.48;107670;275;94396;-59
2023/09/28 06:39:12;;;;;;;;;;;;;;;17.89;80.60;101116.40;107735;275;96272;-57
2023/09/28 06:41:47;;;;;;;;;;;;;;;17.93;80.56;101118.02;107727;275;120033;-55
2023/09/28 06:44:22;;;;;;;;;;;;;;;17.97;80.01;101113.55;107697;275;107011;-54
2023/09/28 06:47:01;;;;;;;;;;;;;;;18.00;79.28;101116.51;107699;275;113886;-58
2023/09/28 06:49:32;;;;;;;;;;;;;;;18.10;79.46;101114.05;107716;275;94229;-57
2023/09/28 06:52:04;;;;;;;;;;;;;;;18.20;79.28;101113.05;107749;275;97798;-58
2023/09/28 06:54:38;;;;;;;;;;;;;;;18.28;78.33;101113.15;107705;275;120593;-58
2023/09/28 06:57:09;;;;;;;;;;;;;;;18.31;78.27;101115.24;107704;275;104619;-57
2023/09/28 06:59:39;;;;;;;;;;;;;;;18.33;77.86;101110.51;107664;275;114535;-58
2023/09/28 07:02:18;;;;;;;;;;;;;;;18.39;77.65;101112.98;107633;275;94272;-57
2023/09/28 07:04:52;;;;;;;;;;;;;;;18.46;76.91;101110.83;107666;275;98130;-57
2023/09/28 07:07:29;;;;;;;;;;;;;;;18.53;76.94;101110.95;107633;275;120391;-58
2023/09/28 07:10:01;;;;;;;;;;;;;;;18.64;76.55;101109.80;107671;275;105327;-57
2023/09/28 07:12:38;;;;;;;;;;;;;;;18.71;75.72;101114.96;107672;275;115029;-58
2023/09/28 07:15:11;;;;;;;;;;;;;;;18.77;74.99;101110.39;107672;275;95108;-58
2023/09/28 07:17:47;;;;;;;;;;;;;;;18.86;75.40;101109.98;107655;275;96884;-55
2023/09/28 07:20:24;;;;;;;;;;;;;;;18.99;75.05;101109.12;107693;275;119807;-58
2023/09/28 07:23:03;;;;;;;;;;;;;;;19.12;73.78;101107.11;107710;275;106389;-57
2023/09/28 07:25:41;;;;;;;;;;;;;;;19.25;73.87;101102.79;107640;275;114187;-58
2023/09/28 07:28:16;;;;;;;;;;;;;;;19.38;73.78;101104.63;107741;275;94131;-57
2023/09/28 07:30:52;;;;;;;;;;;;;;;19.55;73.51;101107.09;107683;275;95722;-58
2023/09/28 07:33:29;;;;;;;;;;;;;;;19.64;72.89;101108.23;107688;275;120337;-58
2023/09/28 07:36:05;;;;;;;;;;;;;;;19.78;73.48;101105.39;107704;275;105688;-60
2023/09/28 07:38:40;;;;;;;;;;;;;;;19.96;73.09;101105.67;107778;275;113868;-59
2023/09/28 07:41:18;;;;;;;;;;;;;;;20.53;72.67;101104.67;107704;275;94426;-56
2023/09/28 07:43:53;;;;;;;;;;;;;;;21.66;72.13;101105.07;107709;275;97387;-56
2023/09/28 07:46:28;;;;;;;;;;;;;;;22.87;70.77;101099.00;107733;275;119178;-60
2023/09/28 07:49:04;;;;;;;;;;;;;;;23.26;69.63;101099.94;107716;275;105204;-59
2023/09/28 07:51:39;;;;;;;;;;;;;;;23.73;68.30;101101.42;107747;275;114916;-60
2023/09/28 07:54:15;;;;;;;;;;;;;;;24.31;66.02;101098.88;107745;275;93684;-58
2023/09/28 07:56:53;;;;;;;;;;;;;;;24.90;65.76;101097.63;107709;275;97669;-56
2023/09/28 07:59:31;;;;;;;;;;;;;;;26.50;63.13;101093.52;107686;275;120449;-57
2023/09/28 08:02:04;;;;;;;;;;;;;;;28.14;62.22;101086.33;107708;275;104926;-57
2023/09/28 08:04:40;;;;;;;;;;;;;;;29.41;59.14;101083.13;107662;275;114383;-57
2023/09/28 08:07:16;;;;;;;;;;;;;;;30.32;58.04;101087.73;107628;275;94665;-56
2023/09/28 08:10:01;;;;;;;;;;;;;;;30.79;55.24;101082.42;107643;275;98167;-56
2023/09/28 08:12:33;;;;;;;;;;;;;;;31.09;53.18;101079.93;107701;275;120434;-60
2023/09/28 08:15:11;;;;;;;;;;;;;;;31.16;52.02;101072.70;107714;275;104172;-58
2023/09/28 08:17:46;;;;;;;;;;;;;;;30.65;50.88;101073.95;107663;275;114779;-57
2023/09/28 08:20:20;;;;;;;;;;;;;;;29.81;49.50;101073.70;107712;275;94759;-58
2023/09/28 08:22:58;;;;;;;;;;;;;;;29.09;50.12;101076.10;107675;275;96575;-58
2023/09/28 08:25:32;;;;;;;;;;;;;;;28.63;50.26;101079.06;107675;275;119616;-60
2023/09/28 08:28:12;;;;;;;;;;;;;;;28.87;50.61;101073.00;107692;275;105853;-59
2023/09/28 08:30:44;;;;;;;;;;;;;;;28.76;49.30;101076.50;107650;275;114579;-55
2023/09/28 08:33:15;;;;;;;;;;;;;;;28.34;49.54;101079.30;107714;275;95550;-55
2023/09/28 08:35:49;;;;;;;;;;;;;;;27.91;48.66;101081.60;107695;275;98219;-55
2023/09/28 08:38:27;;;;;;;;;;;;;;;27.53;49.47;101079.76;107757;275;119972;-55
2023/09/28 08:41:06;;;;;;;;;;;;;;;27.66;49.78;101076.02;107692;275;106055;-58
2023/09/28 08:43:42;;;;;;;;;;;;;;;28.13;49.89;101074.24;107675;275;114232;-58
2023/09/28 08:46:14;;;;;;;;;;;;;;;28.16;49.12;101072.34;107685;275;92990;-60
2023/09/28 08:48:54;;;;;;;;;;;;;;;27.79;48.94;101067.23;107624;275;96850;-58
2023/09/28 08:51:28;;;;;;;;;;;;;;;27.43;48.86;101066.79;107643;275;121458;-59
2023/09/28 08:54:08;;;;;;;;;;;;;;;27.04;48.80;101065.11;107672;275;106162;-59
2023/09/28 08:56:42;;;;;;;;;;;;;;;26.66;48.59;101064.99;107687;275;113830;-60
2023/09/28 08:59:16;;;;;;;;;;;;;;;26.12;48.72;101068.87;107719;275;94467;-59
2023/09/28 09:01:50;;;;;;;;;;;;;;;25.65;49.83;101069.77;107717;275;97409;-59
2023/09/28 09:04:23;;;;;;;;;;;;;;;25.47;50.34;101071.58;107702;275;119236;-59
2023/09/28 09:07:01;;;;;;;;;;;;;;;25.29;50.76;101066.67;107678;275;103514;-56
2023/09/28 09:09:33;;;;;;;;;;;;;;;25.35;51.39;101066.48;107658;275;114825;-55
2023/09/28 09:12:10;;;;;;;;;;;;;;;25.51;51.86;101058.75;107708;275;95171;-57
2023/09/28 09:14:44;;;;;;;;;;;;;;;25.90;51.99;101060.41;107688;275;96876;-56
2023/09/28 09:17:16;;;;;;;;;;;;;;;26.60;51.36;101051.52;107699;275;120342;-55
2023/09/28 09:19:54;;;;;;;;;;;;;;;27.33;50.70;101045.08;107693;275;104941;-54
2023/09/28 09:22:35;;;;;;;;;;;;;;;27.86;49.32;101047.47;107702;275;112295;-55
2023/09/28 09:25:10;;;;;;;;;;;;;;;28.37;48.68;101046.59;107659;275;93304;-59
2023/09/28 09:27:45;;;;;;;;;;;;;;;28.84;48.28;101046.98;107708;275;96702;-60
2023/09/28 09:30:15;;;;;;;;;;;;;;;29.38;47.95;101045.65;107659;275;120268;-61
2023/09/28 09:32:48;;;;;;;;;;;;;;;29.73;46.52;101046.61;107706;275;104451;-61
2023/09/28 09:35:28;;;;;;;;;;;;;;;29.84;45.90;101048.20;107649;275;114615;-60
2023/09/28 09:38:06;;;;;;;;;;;;;;;29.74;45.55;101046.47;107664;275;93830;-61
2023/09/28 09:40:38;;;;;;;;;;;;;;;29.33;44.52;101046.87;107700;275;97188;-59
2023/09/28 09:43:11;;;;;;;;;;;;;;;28.88;44.92;101046.33;107633;275;120616;-55
2023/09/28 09:45:49;;;;;;;;;;;;;;;28.52;45.38;101051.46;107652;275;104434;-57
2023/09/28 09:48:24;;;;;;;;;;;;;;;28.02;45.62;101049.20;107462;275;114710;-56
2023/09/28 09:51:02;;;;;;;;;;;;;;;27.68;45.81;101048.75;107684;275;94455;-60
2023/09/28 09:53:39;;;;;;;;;;;;;;;27.26;46.15;101056.82;107722;275;97402;-59
2023/09/28 09:56:14;;;;;;;;;;;;;;;26.95;46.22;101051.88;107709;275;121262;-60
2023/09/28 09:58:48;;;;;;;;;;;;;;;26.73;46.04;101050.58;107699;275;106341;-60
2023/09/28 10:01:22;;;;;;;;;;;;;;;26.57;47.09;101050.76;107740;275;113639;-59
2023/09/28 10:04:03;;;;;;;;;;;;;;;26.40;47.55;101051.55;107714;275;93914;-59
2023/09/28 10:06:44;;;;;;;;;;;;;;;26.26;48.19;101047.80;107683;275;97846;-55
2023/09/28 10:09:16;;;;;;;;;;;;;;;26.24;48.65;101046.35;107639;275;120539;-54
2023/09/28 10:11:50;;;;;;;;;;;;;;;26.12;48.71;101045.33;107740;275;105668;-60
2023/09/28 10:14:30;;;;;;;;;;;;;;;26.06;48.65;101044.32;107714;275;114141;-59
2023/09/28 10:17:04;;;;;;;;;;;;;;;26.01;48.87;101041.75;107751;275;94591;-60
2023/09/28 10:19:35;;;;;;;;;;;;;;;25.94;48.79;101044.14;107738;275;96844;-59
2023/09/28 10:22:06;;;;;;;;;;;;;;;25.92;49.06;101041.09;107693;275;120767;-56
2023/09/28 10:24:38;;;;;;;;;;;;;;;25.95;49.05;101037.11;107671;275;105664;-55
2023/09/28 10:27:15;;;;;;;;;;;;;;;25.93;49.35;101036.77;107473;275;114841;-59
2023/09/28 10:30:11;;;;;;;;;;;;;;;25.94;49.65;101037.77;107692;275;94280;-59
2023/09/28 10:32:56;;;;;;;;;;;;;;;25.94;49.71;101036.33;107677;275;98096;-59
2023/09/28 10:35:29;;;;;;;;;;;;;;;25.98;49.93;101037.99;107664;275;121347;-59
2023/09/28 10:38:19;;;;;;;;;;;;;;;25.93;49.88;101037.83;107692;275;105365;-59
2023/09/28 10:41:06;;;;;;;;;;;;;;;25.89;49.42;101034.55;107705;275;113345;-54
2023/09/28 10:43:44;;;;;;;;;;;;;;;25.86;49.32;101035.27;107700;275;95310;-55
2023/09/28 10:46:20;;;;;;;;;;;;;;;25.82;49.39;101035.38;107696;275;97755;-54
2023/09/28 10:48:59;;;;;;;;;;;;;;;25.81;49.15;101040.25;107697;275;120155;-55
2023/09/28 10:51:39;;;;;;;;;;;;;;;25.81;49.20;101036.98;107682;275;105907;-56
2023/09/28 10:54:17;;;;;;;;;;;;;;;25.79;49.21;101034.88;107691;275;114830;-56
2023/09/28 10:56:50;;;;;;;;;;;;;;;25.80;48.97;101035.60;107718;275;94383;-61
2023/09/28 10:59:29;;;;;;;;;;;;;;;25.71;48.85;101031.92;107554;275;95960;-59
2023/09/28 11:02:01;;;;;;;;;;;;;;;25.71;48.75;101028.89;107547;275;119997;-59
2023/09/28 11:04:36;;;;;;;;;;;;;;;25.72;49.06;101028.94;107508;275;104541;-61
2023/09/28 11:07:08;;;;;;;;;;;;;;;25.75;49.21;101029.83;107689;275;114903;-61
2023/09/28 11:09:48;;;;;;;;;;;;;;;25.81;49.52;101025.36;107694;275;95020;-61
2023/09/28 11:12:18;;;;;;;;;;;;;;;25.82;49.15;101024.92;107696;275;96673;-54
2023/09/28 11:15:01;;;;;;;;;;;;;;;25.74;48.63;101020.86;107697;275;120304;-55
2023/09/28 11:17:37;;;;;;;;;;;;;;;25.72;48.83;101018.70;107521;275;106731;-56
2023/09/28 11:20:11;;;;;;;;;;;;;;;25.74;48.83;101021.80;107659;275;113334;-55
2023/09/28 11:22:51;;;;;;;;;;;;;;;25.66;48.50;101018.14;107641;275;93801;-54
2023/09/28 11:25:26;;;;;;;;;;;;;;;25.64;48.09;101018.63;107693;275;98087;-57
2023/09/28 11:28:05;;;;;;;;;;;;;;;25.65;48.15;101020.18;107707;275;120489;-58
2023/09/28 11:30:38;;;;;;;;;;;;;;;25.66;48.59;101012.43;107681;275;105828;-54
2023/09/28 11:33:13;;;;;;;;;;;;;;;25.69;48.07;101015.75;107626;275;114435;-54
2023/09/28 11:35:46;;;;;;;;;;;;;;;25.66;47.80;101012.20;107657;275;93605;-56
2023/09/28 11:38:20;;;;;;;;;;;;;;;25.60;47.56;101013.74;107658;275;96465;-56
2023/09/28 11:40:55;;;;;;;;;;;;;;;25.56;47.65;101005.99;107689;275;119533;-58
2023/09/28 11:43:26;;;;;;;;;;;;;;;25.50;47.27;101003.43;107528;275;108789;-58
2023/09/28 11:46:10;;;;;;;;;;;;;;;25.48;47.60;100996.83;107678;275;113258;-57
2023/09/28 11:48:45;;;;;;;;;;;;;;;25.53;47.40;100995.86;107657;275;94822;-60
2023/09/28 11:51:25;;;;;;;;;;;;;;;25.52;47.48;100995.13;107708;275;97370;-54
2023/09/28 11:54:01;;;;;;;;;;;;;;;25.52;47.31;100990.33;107663;275;119264;-54
2023/09/28 11:56:39;;;;;;;;;;;;;;;25.51;47.49;100993.30;107696;275;105199;-55
2023/09/28 11:59:15;;;;;;;;;;;;;;;25.54;47.53;100995.30;107362;275;114663;-55
2023/09/28 12:01:51;;;;;;;;;;;;;;;25.56;47.58;100995.86;107536;275;95212;-57
2023/09/28 12:04:27;;;;;;;;;;;;;;;25.57;47.46;100987.61;107692;275;96637;-58
2023/09/28 12:06:59;;;;;;;;;;;;;;;25.59;47.62;100990.11;107739;275;120825;-59
2023/09/28 12:09:33;;;;;;;;;;;;;;;25.59;47.54;100990.33;107720;275;104824;-60
2023/09/28 12:12:10;;;;;;;;;;;;;;;25.58;47.19;100988.56;107641;275;113056;-56
2023/09/28 12:14:46;;;;;;;;;;;;;;;25.56;46.70;100988.27;107676;275;94253;-56
2023/09/28 12:17:22;;;;;;;;;;;;;;;25.52;46.34;100985.78;107696;275;97965;-59
2023/09/28 12:20:00;;;;;;;;;;;;;;;25.51;46.33;100981.20;107722;275;119386;-60
2023/09/28 12:22:36;;;;;;;;;;;;;;;25.48;45.66;100982.95;107669;275;105429;-55
2023/09/28 12:25:10;;;;;;;;;;;;;;;25.45;45.86;100978.77;107689;275;113307;-56
2023/09/28 12:27:44;;;;;;;;;;;;;;;25.44;46.05;100973.66;107645;275;94178;-56
2023/09/28 12:30:21;;;;;;;;;;;;;;;25.45;46.43;100968.86;107705;275;96421;-57
2023/09/28 12:33:01;;;;;;;;;;;;;;;25.45;46.56;100963.16;107723;275;119856;-58
2023/09/28 12:35:40;;;;;;;;;;;;;;;25.48;46.77;100964.02;107646;275;105157;-55
2023/09/28 12:38:19;;;;;;;;;;;;;;;25.49;47.04;100959.73;107701;275;114473;-55
2023/09/28 12:40:56;;;;;;;;;;;;;;;25.48;46.80;100963.75;107620;275;95136;-59
2023/09/28 12:43:32;;;;;;;;;;;;;;;25.45;46.60;100960.39;107717;275;97237;-59
2023/09/28 12:46:09;;;;;;;;;;;;;;;25.43;46.72;100960.40;107667;275;121572;-56
2023/09/28 12:48:48;;;;;;;;;;;;;;;25.44;46.91;100963.59;107686;275;105472;-57
2023/09/28 12:51:26;;;;;;;;;;;;;;;25.41;46.60;100965.86;107695;275;112419;-57
2023/09/28 12:54:03;;;;;;;;;;;;;;;25.38;46.74;100966.52;107712;275;94601;-57
2023/09/28 12:56:36;;;;;;;;;;;;;;;25.38;46.62;100962.86;107651;275;95787;-55
2023/09/28 12:59:09;;;;;;;;;;;;;;;25.36;46.40;100958.55;107662;275;121348;-57
2023/09/28 13:01:39;;;;;;;;;;;;;;;25.35;46.48;100964.69;107712;275;104709;-59
2023/09/28 13:04:12;;;;;;;;;;;;;;;25.34;46.23;100963.46;107707;275;114624;-59
2023/09/28 13:06:50;;;;;;;;;;;;;;;25.31;46.25;100960.85;107667;275;94005;-57
2023/09/28 13:09:27;;;;;;;;;;;;;;;25.28;46.53;100960.91;107662;275;96917;-54
2023/09/28 13:12:00;;;;;;;;;;;;;;;25.24;46.63;100958.02;107515;275;120289;-56
2023/09/28 13:14:34;;;;;;;;;;;;;;;25.21;46.91;100955.64;107678;275;104918;-55